Accueil
METAR-TAF:

METAR-TAF

Aéroports :

Zamperini Field

Torrance, Californie, États-Unis

latitude: 33-48N, longitude: 118-20W, altitude: 31 m

Observation

Le bulletin a été fait il y a 37 minutes, à 16:47 UTC
Vent 3 kt de direction variable
Température 15°C
Humidité 67%
Pression 1018 hPa
Visibilité: 16.1 km
Nuages épars à une hauteur de 5500 ft

METAR: KTOA 071647Z VRB03KT 10SM SCT055 15/09 A3006

Heure: 10:24 (17:24 UTC)


TAF: absent

Observations et prévisions météorologiques de plus de 4000 aéroports (messages METAR et TAF).

Les stations disponibles sont représentées par des disques jaunes et rouges sur la carte.

Passer la souris dessus pour voir le nom de la station.

Cliquer dessus pour voir les observations et prévisions météorologiques.

Pour changer de carte: cliquez sur les boutons verts avec une croix noire pour zoomer, sur le bouton vert avec un tiret pour effectuer un zoom arrière, ou sur les flèches vertes pour les cartes adjacentes.


METAR-TAF: